createdAt,value
2018-11-10T00:00:04.664Z,43.32
2018-11-10T00:02:38.381Z,43.32
2018-11-10T00:05:11.809Z,43.34
2018-11-10T00:07:45.614Z,43.32
2018-11-10T00:10:20.509Z,43.32
2018-11-10T00:12:54.057Z,43.36
2018-11-10T00:15:27.732Z,43.36
2018-11-10T00:18:01.626Z,43.37
2018-11-10T00:20:35.049Z,43.29
2018-11-10T00:23:08.802Z,43.32
2018-11-10T00:25:42.725Z,43.38
2018-11-10T00:28:16.559Z,43.38
2018-11-10T00:30:50.289Z,43.42
2018-11-10T00:33:24.332Z,43.40
2018-11-10T00:35:57.787Z,43.41
2018-11-10T00:38:32.314Z,43.39
2018-11-10T00:41:06.473Z,43.39
2018-11-10T00:43:40.028Z,43.36
2018-11-10T00:46:13.591Z,43.36
2018-11-10T00:48:47.726Z,43.39
2018-11-10T00:51:21.365Z,43.36
2018-11-10T00:53:54.714Z,43.43
2018-11-10T00:56:28.299Z,43.38
2018-11-10T00:59:01.817Z,43.38
2018-11-10T01:01:35.373Z,43.34
2018-11-10T01:04:09.507Z,43.34
2018-11-10T01:06:43.276Z,43.36
2018-11-10T01:09:16.766Z,43.34
2018-11-10T01:11:50.764Z,43.38
2018-11-10T01:14:24.370Z,43.31
2018-11-10T01:16:58.032Z,43.31
2018-11-10T01:19:31.622Z,43.36
2018-11-10T01:22:05.292Z,43.38
2018-11-10T01:24:38.781Z,43.39
2018-11-10T01:27:12.587Z,43.50
2018-11-10T01:29:46.277Z,43.50
2018-11-10T01:32:21.042Z,43.41
2018-11-10T01:34:55.277Z,43.46
2018-11-10T01:37:28.745Z,43.38
2018-11-10T01:40:02.484Z,43.32
2018-11-10T01:42:36.044Z,43.32
2018-11-10T01:45:13.515Z,43.33
2018-11-10T01:47:47.368Z,43.36
2018-11-10T01:50:20.790Z,43.38
2018-11-10T01:52:53.638Z,43.42
2018-11-10T01:55:27.669Z,43.34
2018-11-10T01:58:01.276Z,43.33
2018-11-10T02:00:34.766Z,43.28
2018-11-10T02:03:08.479Z,43.23
2018-11-10T02:05:42.051Z,43.23
2018-11-10T02:08:15.561Z,43.30
2018-11-10T02:10:49.254Z,43.33
2018-11-10T02:13:22.736Z,43.30
2018-11-10T02:15:56.352Z,43.30
2018-11-10T02:18:30.768Z,43.33
2018-11-10T02:21:03.959Z,43.34
2018-11-10T02:23:36.592Z,43.32
2018-11-10T02:26:10.344Z,43.25
2018-11-10T02:28:43.834Z,43.23
2018-11-10T02:31:17.482Z,43.23
2018-11-10T02:33:51.381Z,43.23
2018-11-10T02:36:25.281Z,43.21
2018-11-10T02:38:58.775Z,43.20
2018-11-10T02:41:32.425Z,43.22
2018-11-10T02:44:05.811Z,43.22
2018-11-10T02:46:38.525Z,43.25
2018-11-10T02:49:11.356Z,43.21
2018-11-10T02:51:45.150Z,43.24
2018-11-10T02:54:18.633Z,43.23
2018-11-10T02:56:52.277Z,43.13
2018-11-10T02:59:26.051Z,43.09
2018-11-10T03:01:59.769Z,43.08
2018-11-10T03:04:33.508Z,43.24
2018-11-10T03:07:07.047Z,43.24
2018-11-10T03:09:40.593Z,43.12
2018-11-10T03:12:14.272Z,43.12
2018-11-10T03:14:47.614Z,43.14
2018-11-10T03:17:21.341Z,43.07
2018-11-10T03:19:54.758Z,43.11
2018-11-10T03:22:27.775Z,43.15
2018-11-10T03:25:00.424Z,43.10
2018-11-10T03:27:34.044Z,43.09
2018-11-10T03:30:07.694Z,43.06
2018-11-10T03:32:41.540Z,43.08
2018-11-10T03:35:15.278Z,43.07
2018-11-10T03:37:48.741Z,43.14
2018-11-10T03:40:23.351Z,43.07
2018-11-10T03:42:56.786Z,43.07
2018-11-10T03:45:29.957Z,43.23
2018-11-10T03:48:02.566Z,43.24
2018-11-10T03:50:36.608Z,43.21
2018-11-10T03:53:09.617Z,43.15
2018-11-10T03:55:43.275Z,43.17
2018-11-10T03:58:17.208Z,43.14
2018-11-10T04:00:51.284Z,43.11
2018-11-10T04:03:25.004Z,43.13
2018-11-10T04:05:58.514Z,43.14
2018-11-10T04:08:32.269Z,43.17
2018-11-10T04:11:05.736Z,43.21
2018-11-10T04:13:39.351Z,43.16
2018-11-10T04:16:13.267Z,43.14
2018-11-10T04:18:46.789Z,43.13
2018-11-10T04:21:20.522Z,43.11
2018-11-10T04:23:54.584Z,43.11
2018-11-10T04:26:28.050Z,43.09
2018-11-10T04:29:02.262Z,43.02
2018-11-10T04:31:35.712Z,43.00
2018-11-10T04:34:09.556Z,42.95
2018-11-10T04:36:43.277Z,42.91
2018-11-10T04:39:16.762Z,42.87
2018-11-10T04:41:50.373Z,42.88
2018-11-10T04:44:24.276Z,42.88
2018-11-10T04:46:57.746Z,42.90
2018-11-10T04:49:31.640Z,42.90
2018-11-10T04:52:05.286Z,42.90
2018-11-10T04:54:38.818Z,42.88
2018-11-10T04:57:13.280Z,42.94
2018-11-10T04:59:46.749Z,42.94
2018-11-10T05:02:20.373Z,42.89
2018-11-10T05:04:53.806Z,42.89
2018-11-10T05:07:27.588Z,42.87
2018-11-10T05:10:01.287Z,42.87
2018-11-10T05:12:34.766Z,43.00
2018-11-10T05:15:09.661Z,43.14
2018-11-10T05:17:43.513Z,43.14
2018-11-10T05:20:17.027Z,43.21
2018-11-10T05:22:51.270Z,43.24
2018-11-10T05:25:24.801Z,43.25
2018-11-10T05:27:59.295Z,43.30
2018-11-10T05:30:32.805Z,43.30
2018-11-10T05:33:06.709Z,43.08
2018-11-10T05:35:40.366Z,43.08
2018-11-10T05:38:13.783Z,43.30
2018-11-10T05:40:47.345Z,43.18
2018-11-10T05:43:21.551Z,43.18
2018-11-10T05:45:55.559Z,43.33
2018-11-10T05:48:29.280Z,43.35
2018-11-10T05:51:02.759Z,43.37
2018-11-10T05:53:36.381Z,43.48
2018-11-10T05:56:11.364Z,43.48
2018-11-10T05:58:44.964Z,43.38
2018-11-10T06:01:18.617Z,43.38
2018-11-10T06:03:52.369Z,43.20
2018-11-10T06:06:26.055Z,42.69
2018-11-10T06:08:59.614Z,42.36
2018-11-10T06:11:33.285Z,42.26
2018-11-10T06:14:06.970Z,42.14
2018-11-10T06:16:40.794Z,42.12
2018-11-10T06:19:15.058Z,42.26
2018-11-10T06:21:49.533Z,42.26
2018-11-10T06:24:23.286Z,42.38
2018-11-10T06:26:57.306Z,42.33
2018-11-10T06:29:30.784Z,42.29
2018-11-10T06:32:04.483Z,42.52
2018-11-10T06:34:38.044Z,42.52
2018-11-10T06:37:11.770Z,42.61
2018-11-10T06:39:45.336Z,42.73
2018-11-10T06:42:19.055Z,42.73
2018-11-10T06:44:52.747Z,42.78
2018-11-10T06:47:26.648Z,42.73
2018-11-10T06:50:00.056Z,42.73
2018-11-10T06:52:33.777Z,42.88
2018-11-10T06:55:07.144Z,42.92
2018-11-10T06:57:39.984Z,42.89
2018-11-10T07:00:17.477Z,42.89
2018-11-10T07:02:50.764Z,42.92
2018-11-10T07:05:24.835Z,42.96
2018-11-10T07:07:57.597Z,42.96
2018-11-10T07:10:31.283Z,42.98
2018-11-10T07:13:04.761Z,43.03
2018-11-10T07:15:38.483Z,43.18
2018-11-10T07:18:12.331Z,43.18
2018-11-10T07:20:45.789Z,43.14
2018-11-10T07:23:19.500Z,43.18
2018-11-10T07:25:53.303Z,43.18
2018-11-10T07:28:26.749Z,43.22
2018-11-10T07:31:00.380Z,43.26
2018-11-10T07:33:34.014Z,43.26
2018-11-10T07:36:08.289Z,43.23
2018-11-10T07:38:41.790Z,43.19
2018-11-10T07:41:15.789Z,43.16
2018-11-10T07:43:49.615Z,43.14
2018-11-10T07:46:23.282Z,43.14
2018-11-10T07:48:56.797Z,43.15
2018-11-10T07:51:30.766Z,43.04
2018-11-10T07:54:04.505Z,43.11
2018-11-10T07:56:38.822Z,43.11
2018-11-10T07:59:11.592Z,43.42
2018-11-10T08:01:44.566Z,43.26
2018-11-10T08:04:18.622Z,43.27
2018-11-10T08:06:52.802Z,43.25
2018-11-10T08:09:27.018Z,43.41
2018-11-10T08:12:00.651Z,43.41
2018-11-10T08:14:34.784Z,43.36
2018-11-10T08:17:09.286Z,43.43
2018-11-10T08:19:42.823Z,43.43
2018-11-10T08:22:16.525Z,46.30
2018-11-10T08:24:50.063Z,46.30
2018-11-10T08:27:24.660Z,43.82
2018-11-10T08:29:58.463Z,43.90
2018-11-10T08:32:31.886Z,43.74
2018-11-10T08:35:05.575Z,43.80
2018-11-10T08:37:39.677Z,43.80
2018-11-10T08:40:15.779Z,43.85
2018-11-10T08:42:49.691Z,43.62
2018-11-10T08:45:23.570Z,43.62
2018-11-10T08:47:57.501Z,43.70
2018-11-10T08:50:31.090Z,43.65
2018-11-10T08:53:04.601Z,43.63
2018-11-10T08:55:38.366Z,43.61
2018-11-10T08:58:12.034Z,43.53
2018-11-10T09:00:45.584Z,43.53
2018-11-10T09:03:19.285Z,43.53
2018-11-10T09:05:53.272Z,43.47
2018-11-10T09:08:26.786Z,43.51
2018-11-10T09:11:00.596Z,43.49
2018-11-10T09:13:48.801Z,43.49
2018-11-10T09:16:22.487Z,43.71
2018-11-10T09:18:56.053Z,43.71
2018-11-10T09:21:29.873Z,43.76
2018-11-10T09:24:03.500Z,43.83
2018-11-10T09:26:37.049Z,43.92
2018-11-10T09:29:11.335Z,43.89
2018-11-10T09:31:44.844Z,43.76
2018-11-10T09:34:18.567Z,43.94
2018-11-10T09:36:52.428Z,43.94
2018-11-10T09:39:28.774Z,43.94
2018-11-10T09:42:01.538Z,44.01
2018-11-10T09:44:34.306Z,44.11
2018-11-10T09:47:08.714Z,44.10
2018-11-10T09:49:42.484Z,44.11
2018-11-10T09:54:48.542Z,44.21
2018-11-10T09:57:22.073Z,44.17
2018-11-10T09:59:56.456Z,44.21
2018-11-10T10:02:30.159Z,44.24
2018-11-10T10:05:02.412Z,44.36
2018-11-10T10:07:38.280Z,44.38
2018-11-10T10:10:14.788Z,44.43
2018-11-10T10:12:47.802Z,44.21
2018-11-10T10:15:20.965Z,44.21
2018-11-10T10:17:54.585Z,44.23
2018-11-10T10:20:28.287Z,44.25
2018-11-10T10:23:01.821Z,44.18
2018-11-10T10:25:35.657Z,44.16
2018-11-10T10:28:09.388Z,44.16
2018-11-10T10:30:42.800Z,44.16
2018-11-10T10:33:16.500Z,44.13
2018-11-10T10:35:50.784Z,44.13
2018-11-10T10:38:24.582Z,44.10
2018-11-10T10:40:58.064Z,44.10
2018-11-10T10:43:31.759Z,44.08
2018-11-10T10:46:05.490Z,44.04
2018-11-10T10:48:39.341Z,44.04
2018-11-10T10:51:12.803Z,43.96
2018-11-10T10:53:46.556Z,43.88
2018-11-10T10:56:20.318Z,43.88
2018-11-10T10:58:53.792Z,43.95
2018-11-10T11:01:43.573Z,43.94
2018-11-10T11:04:34.448Z,43.89
2018-11-10T11:07:08.312Z,43.93
2018-11-10T11:09:41.850Z,43.94
2018-11-10T11:12:15.870Z,43.89
2018-11-10T11:14:47.314Z,43.89
2018-11-10T11:17:20.131Z,43.82
2018-11-10T11:19:53.783Z,43.82
2018-11-10T11:22:27.594Z,43.85
2018-11-10T11:25:01.544Z,43.85
2018-11-10T11:27:35.357Z,43.87
2018-11-10T11:30:09.977Z,43.90
2018-11-10T11:32:43.621Z,43.92
2018-11-10T11:35:17.362Z,43.88
2018-11-10T11:37:50.874Z,43.91
2018-11-10T11:40:22.400Z,43.90
2018-11-10T11:42:55.241Z,43.92
2018-11-10T11:45:28.785Z,43.97
2018-11-10T11:48:02.898Z,44.19
2018-11-10T11:50:36.790Z,44.05
2018-11-10T11:53:11.355Z,44.01
2018-11-10T11:55:45.275Z,44.01
2018-11-10T11:58:19.805Z,43.96
2018-11-10T12:00:53.599Z,43.94
2018-11-10T12:03:27.269Z,43.94
2018-11-10T12:06:01.619Z,43.93
2018-11-10T12:08:35.271Z,43.94
2018-11-10T12:11:09.027Z,43.95
2018-11-10T12:13:43.272Z,43.95
2018-11-10T12:16:27.196Z,43.93
2018-11-10T12:18:50.569Z,43.94
2018-11-10T12:21:24.054Z,43.90
2018-11-10T12:23:57.720Z,43.87
2018-11-10T12:26:31.565Z,43.83
2018-11-10T12:29:05.581Z,43.82
2018-11-10T12:31:39.297Z,43.82
2018-11-10T12:34:13.286Z,43.83
2018-11-10T12:36:46.725Z,43.87
2018-11-10T12:39:20.815Z,43.79
2018-11-10T12:41:54.558Z,43.83
2018-11-10T12:44:28.280Z,43.83
2018-11-10T12:47:10.632Z,43.81
2018-11-10T12:49:44.280Z,43.80
2018-11-10T12:52:18.302Z,43.75
2018-11-10T12:54:51.892Z,43.73
2018-11-10T12:57:24.248Z,43.74
2018-11-10T12:59:58.059Z,43.72
2018-11-10T13:02:31.562Z,43.73
2018-11-10T13:05:05.544Z,43.72
2018-11-10T13:07:39.332Z,43.74
2018-11-10T13:10:13.348Z,43.74
2018-11-10T13:12:47.055Z,43.80
2018-11-10T13:15:20.617Z,43.76
2018-11-10T13:17:55.276Z,43.75
2018-11-10T13:20:28.778Z,43.81
2018-11-10T13:23:01.582Z,43.75
2018-11-10T13:25:35.524Z,43.81
2018-11-10T13:28:09.312Z,43.84
2018-11-10T13:30:43.347Z,43.86
2018-11-10T13:33:16.776Z,43.87
2018-11-10T13:35:50.785Z,44.06
2018-11-10T13:38:25.381Z,43.90
2018-11-10T13:40:59.023Z,43.90
2018-11-10T13:43:32.643Z,43.90
2018-11-10T13:46:06.276Z,43.96
2018-11-10T13:48:39.805Z,43.93
2018-11-10T13:51:13.765Z,43.90
2018-11-10T13:53:47.281Z,43.90
2018-11-10T13:56:20.730Z,43.98
2018-11-10T13:58:54.347Z,43.78
2018-11-10T14:01:27.772Z,43.78
2018-11-10T14:04:01.616Z,43.82
2018-11-10T14:06:35.287Z,43.82
2018-11-10T14:09:12.285Z,43.85
2018-11-10T14:11:45.811Z,43.86
2018-11-10T14:14:19.499Z,43.85
2018-11-10T14:16:53.594Z,43.85
2018-11-10T14:19:27.314Z,43.79
2018-11-10T14:22:01.282Z,43.83
2018-11-10T14:24:35.681Z,43.78
2018-11-10T14:27:09.487Z,43.83
2018-11-10T14:29:42.822Z,43.83
2018-11-10T14:32:16.585Z,43.81
2018-11-10T14:34:50.275Z,43.81
2018-11-10T14:37:23.786Z,43.81
2018-11-10T14:39:57.544Z,43.82
2018-11-10T14:42:31.570Z,43.82
2018-11-10T14:45:05.363Z,43.81
2018-11-10T14:47:38.788Z,43.87
2018-11-10T14:50:13.776Z,44.21
2018-11-10T14:52:47.560Z,43.95
2018-11-10T14:55:20.798Z,43.95
2018-11-10T14:57:54.412Z,43.86
2018-11-10T15:00:29.511Z,43.86
2018-11-10T15:03:03.023Z,43.85
2018-11-10T15:05:36.683Z,43.80
2018-11-10T15:08:10.587Z,43.78
2018-11-10T15:10:44.550Z,43.79
2018-11-10T15:13:18.282Z,43.82
2018-11-10T15:15:52.311Z,43.87
2018-11-10T15:18:25.791Z,43.87
2018-11-10T15:21:00.022Z,43.87
2018-11-10T15:23:33.603Z,43.87
2018-11-10T15:26:07.376Z,43.91
2018-11-10T15:28:41.095Z,43.86
2018-11-10T15:31:15.036Z,43.89
2018-11-10T15:33:49.280Z,43.84
2018-11-10T15:36:22.810Z,43.91
2018-11-10T15:38:56.776Z,43.94
2018-11-10T15:41:33.644Z,44.10
2018-11-10T15:44:10.732Z,44.10
2018-11-10T15:46:44.204Z,43.98
2018-11-10T15:49:17.780Z,44.01
2018-11-10T15:51:50.541Z,43.99
2018-11-10T15:54:24.942Z,43.92
2018-11-10T15:56:58.538Z,43.85
2018-11-10T15:59:31.777Z,43.91
2018-11-10T16:02:05.493Z,43.92
2018-11-10T16:04:39.273Z,43.92
2018-11-10T16:07:12.719Z,43.79
2018-11-10T16:09:46.512Z,43.81
2018-11-10T16:12:20.570Z,43.77
2018-11-10T16:14:55.598Z,43.73
2018-11-10T16:17:28.975Z,43.67
2018-11-10T16:20:02.545Z,43.69
2018-11-10T16:22:36.359Z,43.67
2018-11-10T16:25:11.709Z,43.62
2018-11-10T16:27:45.639Z,43.60
2018-11-10T16:30:20.857Z,43.58
2018-11-10T16:32:54.510Z,43.59
2018-11-10T16:35:28.274Z,43.59
2018-11-10T16:38:01.792Z,43.56
2018-11-10T16:40:35.604Z,43.53
2018-11-10T16:43:09.316Z,43.53
2018-11-10T16:45:43.023Z,43.59
2018-11-10T16:48:17.289Z,43.62
2018-11-10T16:50:50.776Z,44.06
2018-11-10T16:53:25.077Z,44.56
2018-11-10T16:55:58.551Z,44.56
2018-11-10T16:58:32.472Z,44.34
2018-11-10T17:01:06.307Z,44.19
2018-11-10T17:03:39.699Z,44.39
2018-11-10T17:06:13.372Z,44.31
2018-11-10T17:08:47.108Z,44.51
2018-11-10T17:11:20.597Z,44.54
2018-11-10T17:13:54.341Z,45.01
2018-11-10T17:16:28.280Z,45.01
2018-11-10T17:19:01.779Z,45.05
2018-11-10T17:21:35.687Z,45.12
2018-11-10T17:24:09.461Z,45.12
2018-11-10T17:26:43.979Z,45.42
2018-11-10T17:29:17.539Z,45.46
2018-11-10T17:31:51.278Z,45.52
2018-11-10T17:34:24.745Z,45.85
2018-11-10T17:36:58.367Z,46.00
2018-11-10T17:39:32.352Z,45.95
2018-11-10T17:42:05.881Z,46.20
2018-11-10T17:44:39.484Z,46.13
2018-11-10T17:47:13.057Z,46.13
2018-11-10T17:49:46.659Z,46.03
2018-11-10T17:52:20.762Z,45.83
2018-11-10T17:54:54.336Z,46.05
2018-11-10T17:57:27.801Z,45.88
2018-11-10T18:00:01.992Z,46.16
2018-11-10T18:02:35.622Z,46.16
2018-11-10T18:05:10.840Z,46.03
2018-11-10T18:07:45.278Z,45.31
2018-11-10T18:10:20.053Z,45.31
2018-11-10T18:12:54.008Z,45.89
2018-11-10T18:15:27.585Z,45.84
2018-11-10T18:18:01.310Z,45.77
2018-11-10T18:20:35.435Z,45.89
2018-11-10T18:23:09.376Z,45.67
2018-11-10T18:25:43.276Z,45.56
2018-11-10T18:28:16.728Z,45.53
2018-11-10T18:30:49.425Z,45.43
2018-11-10T18:33:22.764Z,45.42
2018-11-10T18:35:56.646Z,45.20
2018-11-10T18:38:30.276Z,45.20
2018-11-10T18:41:03.749Z,45.34
2018-11-10T18:43:37.792Z,45.14
2018-11-10T18:46:11.581Z,45.07
2018-11-10T18:48:52.734Z,45.07
2018-11-10T18:51:26.373Z,45.09
2018-11-10T18:53:59.990Z,45.20
2018-11-10T18:56:33.552Z,45.16
2018-11-10T18:59:07.320Z,45.35
2018-11-10T19:01:41.268Z,45.51
2018-11-10T19:04:15.029Z,45.62
2018-11-10T19:06:48.796Z,45.78
2018-11-10T19:09:22.995Z,45.85
2018-11-10T19:11:56.593Z,45.85
2018-11-10T19:14:30.276Z,45.98
2018-11-10T19:17:03.888Z,46.04
2018-11-10T19:19:36.248Z,46.18
2018-11-10T19:22:10.376Z,46.27
2018-11-10T19:24:44.052Z,46.42
2018-11-10T19:27:17.494Z,46.55
2018-11-10T19:29:50.554Z,46.59
2018-11-10T19:32:23.747Z,46.74
2018-11-10T19:34:56.796Z,46.84
2018-11-10T19:37:34.428Z,46.85
2018-11-10T19:40:09.272Z,46.77
2018-11-10T19:42:44.549Z,46.81
2018-11-10T19:45:18.310Z,46.86
2018-11-10T19:47:51.825Z,46.94
2018-11-10T19:50:25.195Z,46.86
2018-11-10T19:52:58.101Z,46.87
2018-11-10T19:55:32.278Z,46.85
2018-11-10T19:58:05.826Z,47.04
2018-11-10T20:00:39.741Z,46.53
2018-11-10T20:03:13.642Z,46.53
2018-11-10T20:05:47.596Z,46.52
2018-11-10T20:08:21.370Z,46.37
2018-11-10T20:10:55.055Z,46.54
2018-11-10T20:13:29.427Z,46.65
2018-11-10T20:16:02.808Z,46.59
2018-11-10T20:18:35.638Z,46.61
2018-11-10T20:21:08.426Z,46.76
2018-11-10T20:23:42.518Z,46.77
2018-11-10T20:26:16.485Z,46.77
2018-11-10T20:28:50.279Z,46.77
2018-11-10T20:31:23.814Z,46.90
2018-11-10T20:33:57.897Z,46.89
2018-11-10T20:36:30.366Z,46.89
2018-11-10T20:39:03.863Z,46.93
2018-11-10T20:41:37.549Z,46.86
2018-11-10T20:44:11.625Z,46.86
2018-11-10T20:46:45.370Z,46.87
2018-11-10T20:49:19.288Z,45.76
2018-11-10T20:54:35.861Z,45.48
2018-11-10T20:57:08.324Z,45.71
2018-11-10T20:59:41.978Z,46.17
2018-11-10T21:02:15.347Z,46.28
2018-11-10T21:04:48.514Z,46.38
2018-11-10T21:07:21.672Z,46.42
2018-11-10T21:09:54.721Z,46.48
2018-11-10T21:12:27.737Z,46.57
2018-11-10T21:15:01.459Z,46.64
2018-11-10T21:17:34.508Z,46.64
2018-11-10T21:20:08.402Z,46.60
2018-11-10T21:22:41.538Z,46.51
2018-11-10T21:25:17.544Z,46.59
2018-11-10T21:27:50.886Z,46.54
2018-11-10T21:30:23.016Z,46.59
2018-11-10T21:32:56.573Z,46.54
2018-11-10T21:35:30.398Z,46.62
2018-11-10T21:38:03.490Z,46.48
2018-11-10T21:40:36.500Z,46.55
2018-11-10T21:43:10.279Z,46.51
2018-11-10T21:45:44.485Z,46.46
2018-11-10T21:48:17.585Z,46.46
2018-11-10T21:50:50.665Z,46.40
2018-11-10T21:53:23.790Z,46.36
2018-11-10T21:55:57.769Z,46.37
2018-11-10T21:58:31.521Z,46.36
2018-11-10T22:01:05.059Z,46.36
2018-11-10T22:03:39.059Z,46.32
2018-11-10T22:06:12.787Z,46.21
2018-11-10T22:08:46.558Z,46.25
2018-11-10T22:11:20.312Z,46.25
2018-11-10T22:13:53.747Z,46.19
2018-11-10T22:16:27.361Z,46.15
2018-11-10T22:19:00.741Z,46.15
2018-11-10T22:21:34.586Z,46.09
2018-11-10T22:24:08.374Z,46.09
2018-11-10T22:26:42.645Z,46.11
2018-11-10T22:29:16.380Z,46.10
2018-11-10T22:31:50.056Z,46.04
2018-11-10T22:34:23.603Z,46.03
2018-11-10T22:36:57.309Z,46.00
2018-11-10T22:39:31.289Z,45.95
2018-11-10T22:42:04.812Z,45.94
2018-11-10T22:44:38.589Z,45.98
2018-11-10T22:47:12.374Z,45.98
2018-11-10T22:49:46.262Z,45.96
2018-11-10T22:52:19.714Z,45.98
2018-11-10T22:54:53.508Z,45.93
2018-11-10T22:57:27.292Z,45.91
2018-11-10T23:00:01.532Z,45.98
2018-11-10T23:02:35.322Z,45.91
2018-11-10T23:05:09.793Z,45.88
2018-11-10T23:07:43.618Z,45.85
2018-11-10T23:10:17.701Z,45.85
2018-11-10T23:12:52.588Z,45.87
2018-11-10T23:15:26.283Z,45.84
2018-11-10T23:17:59.758Z,45.93
2018-11-10T23:20:33.794Z,45.96
2018-11-10T23:23:07.792Z,45.83
2018-11-10T23:25:41.585Z,45.88
2018-11-10T23:28:15.325Z,45.88
2018-11-10T23:30:48.816Z,45.90
2018-11-10T23:33:22.601Z,45.85
2018-11-10T23:35:57.279Z,45.85
2018-11-10T23:38:30.792Z,45.77
2018-11-10T23:41:04.626Z,45.78
2018-11-10T23:43:38.296Z,45.78
2018-11-10T23:46:12.053Z,45.82
2018-11-10T23:48:46.879Z,45.78
2018-11-10T23:51:20.103Z,45.74
2018-11-10T23:53:54.399Z,45.77
2018-11-10T23:56:28.271Z,45.70
2018-11-10T23:59:01.987Z,45.69
